Fort Hall, Idaho
Current Conditions -  °F | °C
As of 1:53 AM on Sunday 21 Dec 2014 (Local Time) from KPIH Reporting Station
Light Rain Light Rain  
Wind Chill: 28°   Ceiling: 1900
Heat Index: 37°   Visibility: 10mi
Dew Point: 36°   Wind: 15mph
Humidity: 96%   Direction: 230°SW
Pressure: 29.9"   Gusts: NA
Location:  43.03°N, 112.44°W
Report Text: KPIH 210853Z AUTO 23013KT 10SM -RA OVC019 03/02 A2990 RMK AO2 SLP128 P0001 60002 T00280022 56018
Loading
Personal Weather Stations






























Interactive Weather Map New forecast layout! Learn more

10-Day Weather Forecast

Advertisements
Track Severe Weather on mobile